createdAt,value
2018-05-21T00:00:55.552Z,144.97
2018-05-21T00:03:23.050Z,304.10
2018-05-21T00:05:50.567Z,71.47
2018-05-21T00:08:18.067Z,97.37
2018-05-21T00:10:45.578Z,75.43
2018-05-21T00:13:13.850Z,130.67
2018-05-21T00:15:42.112Z,142.97
2018-05-21T00:18:09.643Z,356.37
2018-05-21T00:20:37.151Z,349.97
2018-05-21T00:23:04.660Z,56.07
2018-05-21T00:25:32.148Z,147.27
2018-05-21T00:28:00.424Z,144.57
2018-05-21T00:30:28.691Z,105.83
2018-05-21T00:32:56.205Z,117.93
2018-05-21T00:35:23.706Z,182.20
2018-05-21T00:37:51.218Z,150.23
2018-05-21T00:40:18.720Z,148.87
2018-05-21T00:42:47.002Z,79.20
2018-05-21T00:45:14.509Z,206.73
2018-05-21T00:47:42.014Z,108.27
2018-05-21T00:50:09.526Z,73.93
2018-05-21T00:52:37.040Z,38.13
2018-05-21T00:55:16.452Z,64.97
2018-05-21T00:57:43.955Z,84.00
2018-05-21T01:00:11.466Z,88.63
2018-05-21T01:02:38.995Z,74.03
2018-05-21T01:05:06.572Z,199.80
2018-05-21T01:07:34.021Z,207.90
2018-05-21T01:10:01.519Z,58.00
2018-05-21T01:12:29.017Z,105.23
2018-05-21T01:14:56.531Z,44.53
2018-05-21T01:17:24.043Z,24.93
2018-05-21T01:19:51.709Z,28.83
2018-05-21T01:22:19.217Z,63.70
2018-05-21T01:24:46.719Z,20.67
2018-05-21T01:27:14.239Z,33.70
2018-05-21T01:29:41.735Z,31.53
2018-05-21T01:32:09.262Z,87.53
2018-05-21T01:34:37.552Z,34.43
2018-05-21T01:37:05.841Z,53.43
2018-05-21T01:39:33.363Z,104.83
2018-05-21T01:42:00.865Z,179.23
2018-05-21T01:44:28.399Z,140.30
2018-05-21T01:46:56.664Z,21.97
2018-05-21T01:49:24.944Z,37.17
2018-05-21T01:51:53.214Z,244.40
2018-05-21T01:54:21.487Z,96.30
2018-05-21T01:56:49.795Z,74.50
2018-05-21T01:59:17.287Z,64.63
2018-05-21T02:01:44.808Z,97.00
2018-05-21T02:04:12.302Z,57.97
2018-05-21T02:06:39.814Z,69.77
2018-05-21T02:09:08.107Z,31.40
2018-05-21T02:11:35.607Z,20.30
2018-05-21T02:14:03.140Z,199.77
2018-05-21T02:16:30.643Z,98.27
2018-05-21T02:18:58.143Z,61.40
2018-05-21T02:21:25.724Z,40.13
2018-05-21T02:23:53.154Z,114.93
2018-05-21T02:26:20.686Z,145.17
2018-05-21T02:28:48.945Z,31.60
2018-05-21T02:31:16.456Z,26.83
2018-05-21T02:33:43.997Z,191.03
2018-05-21T02:36:11.506Z,84.13
2018-05-21T02:38:39.034Z,135.03
2018-05-21T02:41:06.535Z,126.73
2018-05-21T02:43:34.054Z,71.83
2018-05-21T02:46:01.558Z,239.53
2018-05-21T02:48:29.053Z,99.90
2018-05-21T02:50:56.557Z,119.23
2018-05-21T02:53:24.045Z,36.77
2018-05-21T02:55:52.339Z,43.23
2018-05-21T02:58:19.844Z,26.33
2018-05-21T03:00:47.337Z,40.43
2018-05-21T03:03:15.605Z,36.27
2018-05-21T03:05:43.878Z,38.40
2018-05-21T03:08:11.395Z,44.67
2018-05-21T03:10:38.899Z,66.87
2018-05-21T03:13:07.186Z,102.47
2018-05-21T03:15:35.459Z,114.23
2018-05-21T03:18:03.731Z,63.43
2018-05-21T03:20:32.052Z,78.10
2018-05-21T03:22:59.595Z,26.90
2018-05-21T03:25:27.129Z,72.60
2018-05-21T03:27:55.400Z,11.47
2018-05-21T03:30:23.679Z,28.60
2018-05-21T03:32:52.047Z,42.63
2018-05-21T03:35:19.621Z,42.37
2018-05-21T03:37:48.867Z,41.17
2018-05-21T03:40:16.474Z,15.67
2018-05-21T03:42:44.002Z,74.20
2018-05-21T03:45:11.589Z,46.93
2018-05-21T03:47:39.110Z,16.53
2018-05-21T03:50:06.690Z,173.10
2018-05-21T03:52:34.206Z,45.43
2018-05-21T03:55:02.425Z,63.60
2018-05-21T03:57:29.943Z,17.07
2018-05-21T04:00:09.298Z,46.07
2018-05-21T04:02:48.651Z,11.93
2018-05-21T04:05:16.250Z,66.07
2018-05-21T04:07:44.547Z,43.27
2018-05-21T04:10:12.050Z,24.07
2018-05-21T04:12:39.569Z,78.90
2018-05-21T04:15:07.087Z,157.50
2018-05-21T04:17:35.401Z,12.27
2018-05-21T04:20:02.926Z,23.63
2018-05-21T04:22:31.255Z,21.80
2018-05-21T04:24:58.803Z,36.90
2018-05-21T04:27:26.359Z,89.37
2018-05-21T04:29:53.932Z,59.37
2018-05-21T04:32:21.465Z,36.50
2018-05-21T04:34:48.989Z,74.07
2018-05-21T04:37:16.530Z,35.87
2018-05-21T04:39:44.049Z,56.13
2018-05-21T04:42:11.594Z,31.27
2018-05-21T04:44:39.113Z,41.80
2018-05-21T04:47:06.623Z,33.30
2018-05-21T04:49:34.130Z,31.57
2018-05-21T04:52:01.624Z,31.13
2018-05-21T04:54:29.146Z,41.17
2018-05-21T04:56:56.667Z,13.40
2018-05-21T04:59:24.172Z,31.60
2018-05-21T05:01:52.533Z,13.27
2018-05-21T05:04:20.047Z,11.20
2018-05-21T05:06:47.575Z,12.23
2018-05-21T05:09:15.053Z,7.60
2018-05-21T05:11:42.555Z,8.60
2018-05-21T05:14:10.070Z,8.90
2018-05-21T05:16:37.576Z,7.20
2018-05-21T05:19:05.084Z,8.73
2018-05-21T05:21:32.588Z,7.53
2018-05-21T05:24:00.087Z,7.47
2018-05-21T05:26:28.357Z,7.70
2018-05-21T05:28:55.865Z,7.10
2018-05-21T05:31:23.384Z,7.07
2018-05-21T05:33:51.742Z,7.77
2018-05-21T05:36:19.232Z,7.70
2018-05-21T05:38:46.763Z,8.27
2018-05-21T05:41:14.262Z,9.17
2018-05-21T05:43:41.780Z,8.10
2018-05-21T05:46:09.279Z,8.23
2018-05-21T05:48:36.793Z,8.40
2018-05-21T05:51:04.302Z,11.47
2018-05-21T05:53:31.869Z,28.17
2018-05-21T05:55:59.392Z,11.63
2018-05-21T05:58:27.643Z,13.67
2018-05-21T06:00:55.169Z,6.97
2018-05-21T06:03:22.665Z,7.77
2018-05-21T06:05:50.305Z,6.60
2018-05-21T06:08:17.821Z,7.10
2018-05-21T06:10:45.424Z,8.57
2018-05-21T06:13:12.969Z,6.23
2018-05-21T06:15:40.635Z,7.17
2018-05-21T06:18:08.229Z,6.80
2018-05-21T06:20:35.792Z,6.90
2018-05-21T06:23:03.328Z,18.03
2018-05-21T06:25:30.923Z,22.67
2018-05-21T06:27:59.245Z,91.93
2018-05-21T06:30:26.863Z,13.37
2018-05-21T06:32:55.196Z,8.73
2018-05-21T06:35:22.817Z,6.60
2018-05-21T06:37:50.549Z,6.67
2018-05-21T06:40:18.108Z,7.00
2018-05-21T06:42:45.826Z,7.53
2018-05-21T06:45:13.414Z,18.77
2018-05-21T06:47:40.991Z,24.83
2018-05-21T06:50:10.610Z,42.90
2018-05-21T06:52:40.655Z,15.63
2018-05-21T06:55:08.299Z,6.77
2018-05-21T06:57:36.669Z,7.37
2018-05-21T07:00:04.293Z,7.77
2018-05-21T07:02:31.859Z,6.57
2018-05-21T07:04:59.425Z,7.07
2018-05-21T07:07:39.081Z,6.53
2018-05-21T07:10:06.626Z,8.17
2018-05-21T07:12:38.375Z,7.77
2018-05-21T07:15:06.061Z,6.00
2018-05-21T07:17:37.098Z,5.43
2018-05-21T07:20:04.605Z,5.53
2018-05-21T07:22:32.285Z,5.10
2018-05-21T07:24:59.845Z,7.60
2018-05-21T07:27:27.447Z,5.30
2018-05-21T07:29:55.752Z,5.83
2018-05-21T07:32:23.248Z,5.03
2018-05-21T07:34:50.782Z,5.67
2018-05-21T07:37:18.317Z,6.63
2018-05-21T07:39:46.595Z,6.27
2018-05-21T07:42:14.085Z,7.93
2018-05-21T07:44:41.710Z,7.73
2018-05-21T07:47:09.214Z,4.00
2018-05-21T07:49:36.742Z,4.10
2018-05-21T07:52:04.343Z,4.27
2018-05-21T07:54:33.314Z,4.20
2018-05-21T07:57:00.858Z,3.70
2018-05-21T07:59:30.619Z,4.37
2018-05-21T08:01:58.210Z,3.93
2018-05-21T08:04:26.535Z,5.57
2018-05-21T08:06:54.199Z,3.80
2018-05-21T08:09:22.166Z,3.90
2018-05-21T08:11:50.381Z,4.20
2018-05-21T08:14:19.495Z,8.33
2018-05-21T08:16:47.079Z,14.70
2018-05-21T08:19:14.668Z,6.67
2018-05-21T08:21:42.263Z,9.67
2018-05-21T08:24:09.762Z,7.30
2018-05-21T08:26:37.287Z,4.73
2018-05-21T08:29:04.785Z,4.07
2018-05-21T08:31:32.541Z,4.10
2018-05-21T08:34:00.100Z,3.53
2018-05-21T08:36:29.448Z,4.10
2018-05-21T08:38:57.720Z,4.07
2018-05-21T08:41:25.220Z,3.77
2018-05-21T08:43:52.731Z,3.20
2018-05-21T08:46:24.174Z,4.30
2018-05-21T08:48:51.806Z,3.73
2018-05-21T08:51:19.303Z,4.07
2018-05-21T08:53:46.807Z,3.70
2018-05-21T08:56:14.481Z,3.57
2018-05-21T08:58:42.100Z,3.60
2018-05-21T09:01:09.600Z,3.77
2018-05-21T09:03:37.090Z,3.60
2018-05-21T09:06:04.591Z,3.50
2018-05-21T09:08:32.091Z,4.33
2018-05-21T09:10:59.598Z,3.03
2018-05-21T09:13:27.865Z,3.63
2018-05-21T09:15:56.181Z,6.13
2018-05-21T09:18:23.707Z,13.63
2018-05-21T09:20:51.965Z,3.67
2018-05-21T09:23:19.576Z,4.50
2018-05-21T09:25:47.064Z,3.00
2018-05-21T09:28:14.546Z,2.90
2018-05-21T09:30:42.828Z,3.30
2018-05-21T09:33:11.100Z,3.57
2018-05-21T09:35:39.379Z,4.20
2018-05-21T09:38:07.651Z,3.30
2018-05-21T09:40:35.906Z,4.63
2018-05-21T09:43:03.414Z,4.50
2018-05-21T09:45:30.987Z,5.67
2018-05-21T09:47:58.505Z,5.10
2018-05-21T09:50:28.281Z,3.43
2018-05-21T09:52:55.766Z,3.30
2018-05-21T09:55:23.264Z,3.17
2018-05-21T09:57:50.745Z,3.03
2018-05-21T10:00:18.264Z,3.13
2018-05-21T10:02:45.762Z,3.50
2018-05-21T10:05:13.359Z,3.90
2018-05-21T10:07:40.873Z,6.77
2018-05-21T10:10:08.357Z,3.37
2018-05-21T10:12:35.869Z,3.67
2018-05-21T10:15:03.375Z,3.17
2018-05-21T10:17:30.900Z,3.27
2018-05-21T10:19:59.066Z,2.73
2018-05-21T10:22:26.585Z,3.23
2018-05-21T10:24:54.121Z,2.30
2018-05-21T10:27:21.609Z,2.53
2018-05-21T10:29:49.899Z,3.57
2018-05-21T10:32:17.424Z,3.13
2018-05-21T10:34:44.941Z,5.13
2018-05-21T10:37:12.491Z,2.20
2018-05-21T10:39:40.000Z,2.30
2018-05-21T10:42:07.535Z,2.73
2018-05-21T10:44:35.183Z,3.07
2018-05-21T10:47:02.706Z,2.67
2018-05-21T10:49:30.251Z,2.90
2018-05-21T10:51:59.675Z,5.33
2018-05-21T10:54:27.944Z,2.90
2018-05-21T10:56:55.443Z,5.57
2018-05-21T10:59:22.977Z,2.93
2018-05-21T11:01:50.502Z,3.57
2018-05-21T11:04:18.783Z,3.30
2018-05-21T11:06:46.310Z,3.30
2018-05-21T11:09:13.805Z,3.40
2018-05-21T11:11:42.091Z,3.40
2018-05-21T11:14:10.827Z,3.20
2018-05-21T11:16:38.325Z,3.13
2018-05-21T11:19:06.800Z,2.80
2018-05-21T11:21:34.309Z,3.27
2018-05-21T11:24:02.671Z,3.17
2018-05-21T11:26:30.157Z,2.80
2018-05-21T11:28:57.669Z,2.73
2018-05-21T11:31:25.918Z,4.63
2018-05-21T11:33:54.201Z,2.97
2018-05-21T11:36:21.713Z,3.17
2018-05-21T11:38:49.200Z,4.77
2018-05-21T11:41:16.725Z,3.47
2018-05-21T11:43:44.229Z,3.93
2018-05-21T11:46:11.725Z,4.13
2018-05-21T11:48:39.230Z,2.70
2018-05-21T11:51:06.717Z,2.40
2018-05-21T11:53:34.980Z,2.60
2018-05-21T11:56:02.460Z,2.30
2018-05-21T11:58:30.742Z,2.50
2018-05-21T12:00:58.988Z,3.37
2018-05-21T12:03:26.486Z,2.30
2018-05-21T12:05:53.992Z,2.60
2018-05-21T12:08:21.476Z,2.50
2018-05-21T12:10:49.756Z,3.93
2018-05-21T12:13:18.017Z,2.63
2018-05-21T12:15:45.505Z,2.50
2018-05-21T12:18:13.027Z,4.67
2018-05-21T12:20:40.536Z,2.20
2018-05-21T12:23:08.045Z,3.07
2018-05-21T12:25:35.526Z,2.20
2018-05-21T12:28:03.790Z,2.80
2018-05-21T12:30:32.057Z,3.60
2018-05-21T12:32:59.582Z,3.17
2018-05-21T12:35:27.085Z,5.47
2018-05-21T12:37:55.450Z,3.03
2018-05-21T12:40:22.941Z,3.37
2018-05-21T12:42:50.484Z,11.10
2018-05-21T12:45:19.229Z,5.37
2018-05-21T12:47:46.745Z,4.17
2018-05-21T12:50:15.009Z,3.10
2018-05-21T12:52:43.281Z,2.80
2018-05-21T12:55:11.590Z,2.83
2018-05-21T12:57:39.095Z,3.37
2018-05-21T13:00:06.589Z,2.90
2018-05-21T13:02:34.845Z,3.07
2018-05-21T13:05:03.134Z,3.63
2018-05-21T13:07:31.450Z,5.30
2018-05-21T13:09:59.069Z,3.70
2018-05-21T13:12:27.341Z,6.03
2018-05-21T13:14:55.613Z,3.57
2018-05-21T13:17:23.181Z,8.87
2018-05-21T13:19:51.459Z,3.20
2018-05-21T13:22:19.725Z,3.43
2018-05-21T13:24:48.093Z,3.60
2018-05-21T13:27:15.612Z,3.60
2018-05-21T13:29:43.362Z,3.13
2018-05-21T13:32:10.862Z,2.87
2018-05-21T13:34:38.499Z,3.50
2018-05-21T13:37:05.999Z,3.03
2018-05-21T13:39:34.258Z,3.93
2018-05-21T13:42:01.760Z,2.83
2018-05-21T13:44:30.085Z,6.83
2018-05-21T13:46:57.590Z,6.63
2018-05-21T13:49:25.081Z,27.87
2018-05-21T13:51:53.621Z,4.43
2018-05-21T13:54:21.898Z,2.07
2018-05-21T13:56:50.163Z,2.27
2018-05-21T13:59:17.680Z,2.60
2018-05-21T14:01:45.176Z,3.00
2018-05-21T14:04:12.679Z,2.40
2018-05-21T14:06:40.176Z,1.80
2018-05-21T14:09:07.671Z,1.83
2018-05-21T14:11:35.953Z,6.80
2018-05-21T14:14:04.212Z,2.80
2018-05-21T14:16:32.488Z,12.60
2018-05-21T14:19:00.771Z,5.00
2018-05-21T14:21:29.104Z,3.17
2018-05-21T14:23:56.598Z,2.87
2018-05-21T14:26:24.855Z,3.30
2018-05-21T14:28:52.376Z,2.20
2018-05-21T14:31:19.864Z,2.23
2018-05-21T14:33:47.355Z,2.20
2018-05-21T14:36:15.622Z,1.90
2018-05-21T14:38:43.887Z,1.70
2018-05-21T14:41:11.402Z,2.07
2018-05-21T14:43:38.900Z,1.90
2018-05-21T14:46:06.397Z,6.53
2018-05-21T14:48:33.900Z,2.00
2018-05-21T14:51:01.397Z,2.20
2018-05-21T14:53:29.694Z,2.17
2018-05-21T14:55:57.180Z,3.50
2018-05-21T14:58:24.674Z,2.07
2018-05-21T15:00:52.173Z,7.10
2018-05-21T15:03:19.840Z,13.97
2018-05-21T15:05:47.357Z,2.53
2018-05-21T15:08:15.639Z,2.47
2018-05-21T15:10:43.906Z,2.43
2018-05-21T15:13:12.182Z,2.17
2018-05-21T15:15:39.677Z,1.97
2018-05-21T15:18:07.184Z,2.33
2018-05-21T15:20:36.184Z,2.63
2018-05-21T15:23:03.698Z,2.50
2018-05-21T15:25:31.223Z,2.70
2018-05-21T15:27:59.492Z,2.17
2018-05-21T15:30:27.766Z,2.40
2018-05-21T15:32:56.039Z,2.70
2018-05-21T15:35:24.285Z,4.93
2018-05-21T15:37:51.794Z,3.40
2018-05-21T15:40:19.277Z,3.90
2018-05-21T15:42:46.802Z,2.50
2018-05-21T15:45:15.075Z,2.10
2018-05-21T15:47:43.341Z,3.50
2018-05-21T15:50:11.628Z,2.67
2018-05-21T15:52:39.890Z,2.97
2018-05-21T15:55:07.406Z,3.13
2018-05-21T15:57:34.973Z,3.20
2018-05-21T16:00:03.169Z,3.30
2018-05-21T16:02:30.690Z,3.10
2018-05-21T16:04:58.182Z,3.93
2018-05-21T16:07:25.759Z,3.40
2018-05-21T16:09:53.201Z,7.43
2018-05-21T16:12:20.698Z,5.03
2018-05-21T16:14:48.222Z,53.57
2018-05-21T16:17:16.486Z,3.13
2018-05-21T16:19:43.988Z,6.47
2018-05-21T16:22:12.237Z,2.90
2018-05-21T16:24:41.271Z,35.77
2018-05-21T16:27:08.777Z,36.83
2018-05-21T16:29:36.271Z,6.93
2018-05-21T16:32:04.575Z,20.27
2018-05-21T16:34:32.071Z,4.37
2018-05-21T16:36:59.562Z,3.93
2018-05-21T16:39:27.830Z,3.17
2018-05-21T16:41:56.081Z,3.20
2018-05-21T16:44:26.636Z,3.07
2018-05-21T16:46:54.894Z,4.23
2018-05-21T16:49:22.381Z,2.70
2018-05-21T16:51:50.879Z,3.10
2018-05-21T16:54:18.404Z,3.53
2018-05-21T16:56:46.697Z,2.80
2018-05-21T16:59:14.950Z,3.13
2018-05-21T17:01:43.209Z,3.43
2018-05-21T17:04:10.903Z,3.50
2018-05-21T17:06:39.167Z,3.73
2018-05-21T17:09:07.609Z,2.77
2018-05-21T17:11:35.222Z,2.90
2018-05-21T17:14:03.481Z,4.50
2018-05-21T17:16:31.767Z,5.57
2018-05-21T17:19:00.035Z,3.10
2018-05-21T17:21:27.557Z,2.90
2018-05-21T17:23:55.056Z,3.73
2018-05-21T17:26:23.316Z,3.47
2018-05-21T17:28:52.472Z,6.20
2018-05-21T17:31:21.088Z,3.07
2018-05-21T17:33:49.418Z,3.40
2018-05-21T17:36:16.914Z,2.87
2018-05-21T17:38:44.401Z,3.17
2018-05-21T17:41:11.974Z,3.20
2018-05-21T17:43:39.436Z,2.83
2018-05-21T17:46:07.693Z,3.53
2018-05-21T17:48:35.177Z,2.50
2018-05-21T17:51:02.677Z,4.77
2018-05-21T17:53:30.156Z,6.03
2018-05-21T17:55:57.665Z,20.70
2018-05-21T17:58:25.153Z,5.10
2018-05-21T18:00:52.645Z,3.93
2018-05-21T18:03:20.158Z,3.10
2018-05-21T18:05:47.659Z,3.10
2018-05-21T18:08:15.179Z,4.07
2018-05-21T18:10:42.668Z,3.50
2018-05-21T18:13:10.144Z,3.97
2018-05-21T18:15:38.446Z,3.80
2018-05-21T18:18:05.931Z,3.40
2018-05-21T18:20:33.429Z,3.63
2018-05-21T18:23:01.681Z,7.47
2018-05-21T18:25:29.165Z,3.90
2018-05-21T18:27:57.439Z,3.33
2018-05-21T18:30:25.698Z,32.57
2018-05-21T18:32:53.232Z,7.60
2018-05-21T18:35:20.732Z,25.77
2018-05-21T18:37:48.993Z,18.30
2018-05-21T18:40:16.501Z,4.27
2018-05-21T18:42:43.997Z,4.17
2018-05-21T18:45:11.514Z,4.53
2018-05-21T18:47:39.035Z,4.17
2018-05-21T18:50:06.519Z,4.90
2018-05-21T18:52:34.816Z,5.17
2018-05-21T18:55:02.343Z,6.77
2018-05-21T18:57:30.625Z,4.57
2018-05-21T18:59:58.884Z,4.60
2018-05-21T19:02:27.144Z,3.90
2018-05-21T19:04:54.649Z,2.80
2018-05-21T19:07:22.133Z,4.07
2018-05-21T19:09:49.647Z,3.03
2018-05-21T19:12:17.951Z,3.73
2018-05-21T19:14:45.448Z,4.23
2018-05-21T19:17:12.958Z,3.60
2018-05-21T19:19:40.441Z,3.37
2018-05-21T19:22:07.951Z,4.80
2018-05-21T19:24:36.211Z,3.43
2018-05-21T19:27:03.714Z,4.20
2018-05-21T19:29:31.228Z,3.60
2018-05-21T19:31:58.715Z,5.23
2018-05-21T19:34:26.252Z,197.93
2018-05-21T19:36:54.540Z,57.93
2018-05-21T19:39:22.849Z,72.67
2018-05-21T19:41:50.353Z,7.07
2018-05-21T19:44:17.843Z,4.20
2018-05-21T19:46:46.104Z,3.40
2018-05-21T19:49:14.363Z,3.13
2018-05-21T19:51:41.876Z,4.50
2018-05-21T19:54:09.368Z,3.50
2018-05-21T19:56:36.854Z,3.93
2018-05-21T19:59:05.163Z,3.67
2018-05-21T20:01:32.666Z,3.50
2018-05-21T20:04:00.177Z,3.97
2018-05-21T20:06:27.677Z,3.90
2018-05-21T20:08:55.164Z,4.23
2018-05-21T20:11:23.434Z,23.77
2018-05-21T20:13:51.710Z,66.27
2018-05-21T20:16:19.979Z,30.83
2018-05-21T20:18:48.303Z,50.47
2018-05-21T20:21:15.804Z,7.93
2018-05-21T20:23:43.320Z,4.50
2018-05-21T20:26:10.813Z,3.90
2018-05-21T20:28:38.321Z,5.90
2018-05-21T20:31:05.832Z,4.77
2018-05-21T20:33:33.325Z,5.77
2018-05-21T20:36:01.603Z,5.13
2018-05-21T20:38:29.871Z,5.00
2018-05-21T20:40:58.145Z,7.00
2018-05-21T20:43:26.406Z,5.93
2018-05-21T20:45:53.896Z,4.80
2018-05-21T20:48:21.389Z,4.70
2018-05-21T20:50:48.878Z,4.70
2018-05-21T20:53:16.490Z,4.20
2018-05-21T20:55:44.048Z,4.37
2018-05-21T20:58:11.541Z,5.43
2018-05-21T21:00:39.042Z,5.97
2018-05-21T21:03:07.306Z,4.83
2018-05-21T21:05:35.590Z,3.77
2018-05-21T21:08:03.837Z,4.43
2018-05-21T21:10:31.386Z,7.17
2018-05-21T21:12:58.849Z,6.00
2018-05-21T21:15:26.410Z,4.50
2018-05-21T21:17:53.947Z,4.73
2018-05-21T21:20:21.435Z,5.40
2018-05-21T21:22:48.914Z,4.43
2018-05-21T21:25:17.169Z,4.70
2018-05-21T21:27:44.656Z,4.20
2018-05-21T21:30:12.178Z,4.00
2018-05-21T21:32:39.676Z,7.03
2018-05-21T21:35:07.197Z,4.40
2018-05-21T21:37:34.804Z,3.80
2018-05-21T21:40:02.310Z,5.00
2018-05-21T21:42:29.787Z,5.47
2018-05-21T21:44:57.294Z,5.27
2018-05-21T21:47:24.796Z,5.90
2018-05-21T21:49:52.309Z,4.57
2018-05-21T21:52:19.790Z,6.00
2018-05-21T21:54:47.302Z,6.57
2018-05-21T21:57:14.777Z,6.43
2018-05-21T21:59:42.286Z,7.97
2018-05-21T22:02:09.767Z,6.83
2018-05-21T22:04:38.028Z,5.70
2018-05-21T22:07:06.285Z,8.00
2018-05-21T22:09:33.768Z,6.63
2018-05-21T22:12:02.025Z,7.80
2018-05-21T22:14:29.528Z,6.67
2018-05-21T22:16:57.039Z,6.47
2018-05-21T22:19:24.526Z,7.57
2018-05-21T22:21:52.811Z,7.53
2018-05-21T22:24:20.288Z,7.43
2018-05-21T22:26:47.773Z,6.47
2018-05-21T22:29:15.301Z,9.10
2018-05-21T22:31:42.859Z,7.97
2018-05-21T22:34:10.356Z,8.40
2018-05-21T22:36:39.350Z,12.37
2018-05-21T22:39:06.863Z,9.07
2018-05-21T22:41:34.370Z,6.13
2018-05-21T22:44:01.880Z,6.87
2018-05-21T22:46:29.377Z,7.20
2018-05-21T22:48:56.894Z,9.00
2018-05-21T22:51:24.369Z,8.80
2018-05-21T22:53:51.877Z,6.30
2018-05-21T22:56:19.386Z,6.77
2018-05-21T22:58:46.864Z,6.80
2018-05-21T23:01:14.363Z,6.53
2018-05-21T23:03:42.669Z,6.07
2018-05-21T23:06:10.175Z,9.03
2018-05-21T23:08:37.667Z,5.97
2018-05-21T23:11:05.348Z,7.67
2018-05-21T23:13:32.849Z,9.63
2018-05-21T23:16:00.342Z,6.27
2018-05-21T23:18:27.833Z,10.30
2018-05-21T23:20:55.342Z,7.93
2018-05-21T23:23:23.596Z,8.33
2018-05-21T23:25:52.604Z,9.47
2018-05-21T23:28:20.082Z,6.80
2018-05-21T23:30:48.330Z,5.90
2018-05-21T23:33:15.829Z,6.80
2018-05-21T23:35:43.304Z,7.60
2018-05-21T23:38:10.814Z,7.20
2018-05-21T23:40:39.057Z,5.87
2018-05-21T23:43:06.559Z,7.03
2018-05-21T23:45:34.828Z,6.70
2018-05-21T23:48:03.090Z,6.60
2018-05-21T23:50:30.605Z,6.93
2018-05-21T23:52:58.086Z,7.27
2018-05-21T23:55:25.584Z,7.70
2018-05-21T23:57:53.856Z,6.97
